This is the latest recevied weather packets stored in our database for station/object KE0QIB. If no packets are shown the sender has not sent any weather packets the latest 10 day(s).
| Time | Temp. | Humidity | Pressure | Rain* | Wind** | Luminosity | Snow |
|---|---|---|---|---|---|---|---|
| 1777864917 | 13.89° C | 49% | 989.7 hPa | 0 mm | - | - | - |
| 1777864617 | 13.89° C | 52% | 989.7 hPa | 0 mm | - | - | - |
| 1777864317 | 13.33° C | 51% | 989.7 hPa | 0 mm | - | - | - |
| 1777864017 | 12.78° C | 53% | 990 hPa | 0 mm | - | - | - |
| 1777863717 | 12.22° C | 57% | 990 hPa | 0 mm | - | - | - |
| 1777863417 | 11.11° C | 61% | 990 hPa | 0 mm | - | - | - |
| 1777863117 | 11.11° C | 65% | 989.9 hPa | 0 mm | - | - | - |
| 1777862817 | 11.11° C | 66% | 989.9 hPa | 0 mm | - | - | - |
| 1777862517 | 11.11° C | 66% | 989.9 hPa | 0 mm | - | - | - |
| 1777862217 | 11.11° C | 66% | 989.8 hPa | 0 mm | - | - | - |
| 1777861917 | 11.11° C | 66% | 989.8 hPa | 0 mm | - | - | - |
| 1777861617 | 11.67° C | 65% | 989.8 hPa | 0 mm | - | - | - |
| 1777861317 | 11.67° C | 66% | 990 hPa | 0 mm | - | - | - |
| 1777861017 | 11.67° C | 67% | 990 hPa | 0 mm | - | - | - |
| 1777860717 | 11.67° C | 68% | 990 hPa | 0 mm | - | - | - |
| 1777860417 | 11.67° C | 71% | 990.1 hPa | 0 mm | - | - | - |
| 1777860117 | 11.67° C | 71% | 990.1 hPa | 0 mm | - | - | - |
| 1777859817 | 11.67° C | 70% | 990.1 hPa | 0 mm | - | - | - |
| 1777859517 | 12.22° C | 70% | 990 hPa | 0 mm | - | - | - |
| 1777859217 | 12.22° C | 69% | 990 hPa | 0 mm | - | - | - |
| 1777858917 | 12.78° C | 69% | 990 hPa | 0 mm | - | - | - |
| 1777858617 | 12.78° C | 68% | 989.9 hPa | 0 mm | - | - | - |
| 1777858317 | 13.33° C | 67% | 989.9 hPa | 0 mm | - | - | - |
| 1777858017 | 13.33° C | 67% | 989.9 hPa | 0 mm | - | - | - |
| 1777857717 | 13.89° C | 65% | 990.2 hPa | 0 mm | - | - | - |
* Rain latest hour (hover to see other rain measurements)
** Current wind speed in m/s (hover to see current wind gust speed)